createdAt,value
2019-05-17T00:00:48.360Z,0.00
2019-05-17T00:01:48.395Z,0.00
2019-05-17T00:02:48.421Z,0.00
2019-05-17T00:03:48.449Z,0.00
2019-05-17T00:04:48.478Z,0.00
2019-05-17T00:05:48.531Z,0.00
2019-05-17T00:06:48.535Z,0.00
2019-05-17T00:07:48.565Z,0.00
2019-05-17T00:08:48.595Z,0.00
2019-05-17T00:09:48.622Z,0.00
2019-05-17T00:10:48.652Z,0.00
2019-05-17T00:11:48.684Z,0.00
2019-05-17T00:12:48.710Z,0.00
2019-05-17T00:13:48.742Z,0.00
2019-05-17T00:14:48.771Z,0.00
2019-05-17T00:15:48.797Z,0.00
2019-05-17T00:16:49.433Z,0.00
2019-05-17T00:17:48.854Z,0.00
2019-05-17T00:18:48.883Z,0.00
2019-05-17T00:19:48.912Z,0.00
2019-05-17T00:20:48.943Z,0.00
2019-05-17T00:21:48.970Z,0.00
2019-05-17T00:22:49.203Z,0.00
2019-05-17T00:23:49.028Z,0.00
2019-05-17T00:24:49.057Z,0.00
2019-05-17T00:26:49.164Z,0.00
2019-05-17T00:27:49.166Z,0.00
2019-05-17T00:28:49.172Z,0.00
2019-05-17T00:29:49.226Z,0.00
2019-05-17T00:30:49.229Z,0.00
2019-05-17T00:31:49.281Z,0.00
2019-05-17T00:32:49.310Z,0.00
2019-05-17T00:33:49.338Z,0.00
2019-05-17T00:34:49.395Z,0.00
2019-05-17T00:35:49.395Z,0.00
2019-05-17T00:36:49.629Z,0.00
2019-05-17T00:37:49.655Z,0.00
2019-05-17T00:38:51.612Z,0.00
2019-05-17T00:40:49.519Z,0.00
2019-05-17T00:42:49.594Z,0.00
2019-05-17T00:43:49.602Z,0.00
2019-05-17T00:44:49.962Z,0.00
2019-05-17T00:46:49.687Z,0.00
2019-05-17T00:47:49.940Z,0.00
2019-05-17T00:48:49.749Z,0.00
2019-05-17T00:51:50.054Z,0.00
2019-05-17T00:52:49.880Z,0.00
2019-05-17T00:54:49.914Z,0.00
2019-05-17T00:55:49.945Z,0.00
2019-05-17T00:56:49.971Z,0.00
2019-05-17T00:57:49.999Z,0.00
2019-05-17T00:58:50.029Z,0.00
2019-05-17T00:59:50.056Z,0.00
2019-05-17T01:00:50.087Z,0.00
2019-05-17T01:01:50.112Z,0.00
2019-05-17T01:02:50.141Z,0.00
2019-05-17T01:03:50.170Z,0.00
2019-05-17T01:04:50.198Z,0.00
2019-05-17T01:06:32.769Z,0.00
2019-05-17T01:07:32.798Z,0.00
2019-05-17T01:08:32.826Z,0.00
2019-05-17T01:09:32.858Z,0.00
2019-05-17T01:10:32.882Z,0.00
2019-05-17T01:11:32.911Z,0.00
2019-05-17T01:12:32.939Z,0.00
2019-05-17T01:13:32.965Z,0.00
2019-05-17T01:14:32.996Z,0.00
2019-05-17T01:15:33.024Z,0.00
2019-05-17T01:16:33.053Z,0.00
2019-05-17T01:17:33.079Z,0.00
2019-05-17T01:18:33.109Z,0.00
2019-05-17T01:19:33.136Z,0.00
2019-05-17T01:20:33.167Z,0.00
2019-05-17T01:21:33.192Z,0.00
2019-05-17T01:22:33.220Z,0.00
2019-05-17T01:23:33.248Z,0.00
2019-05-17T01:24:33.279Z,0.00
2019-05-17T01:25:33.305Z,0.00
2019-05-17T01:26:33.335Z,0.00
2019-05-17T01:27:33.362Z,0.00
2019-05-17T01:28:33.393Z,0.00
2019-05-17T01:29:33.419Z,0.00
2019-05-17T01:30:33.447Z,0.00
2019-05-17T01:31:33.476Z,0.00
2019-05-17T01:32:33.504Z,0.00
2019-05-17T01:33:33.533Z,0.00
2019-05-17T01:34:33.572Z,0.00
2019-05-17T01:35:33.590Z,0.00
2019-05-17T01:36:33.619Z,0.00
2019-05-17T01:37:33.644Z,0.00
2019-05-17T01:38:33.676Z,0.00
2019-05-17T01:39:33.711Z,0.00
2019-05-17T01:40:33.729Z,0.00
2019-05-17T01:41:33.758Z,0.00
2019-05-17T01:42:33.786Z,0.00
2019-05-17T01:43:33.814Z,0.00
2019-05-17T01:44:33.843Z,0.00
2019-05-17T01:45:33.874Z,0.00
2019-05-17T01:46:33.899Z,0.00
2019-05-17T01:47:33.927Z,0.00
2019-05-17T01:48:36.367Z,0.00
2019-05-17T01:49:36.169Z,0.00
2019-05-17T01:50:34.011Z,0.00
2019-05-17T01:51:34.039Z,0.00
2019-05-17T01:52:34.069Z,0.00
2019-05-17T01:53:36.309Z,0.00
2019-05-17T01:54:36.159Z,0.00
2019-05-17T01:55:34.157Z,0.00
2019-05-17T01:56:34.182Z,0.00
2019-05-17T01:57:36.758Z,0.00
2019-05-17T01:58:36.510Z,0.00
2019-05-17T01:59:34.489Z,0.00
2019-05-17T02:00:37.287Z,0.00
2019-05-17T02:01:36.895Z,0.00
2019-05-17T02:02:36.474Z,0.00
2019-05-17T02:03:34.377Z,0.00
2019-05-17T02:04:34.418Z,0.00
2019-05-17T02:05:36.923Z,0.00
2019-05-17T02:06:36.683Z,0.00
2019-05-17T02:07:34.489Z,0.00
2019-05-17T02:08:37.024Z,0.00
2019-05-17T02:09:38.590Z,0.00
2019-05-17T02:10:34.574Z,0.00
2019-05-17T02:11:37.048Z,0.00
2019-05-17T02:12:37.016Z,0.00
2019-05-17T02:13:34.657Z,0.00
2019-05-17T02:14:34.685Z,0.00
2019-05-17T02:15:34.714Z,0.00
2019-05-17T02:16:37.409Z,0.00
2019-05-17T02:17:37.157Z,0.00
2019-05-17T02:18:37.038Z,0.00
2019-05-17T02:19:37.021Z,0.00
2019-05-17T02:20:36.969Z,0.00
2019-05-17T02:21:36.749Z,0.00
2019-05-17T02:22:36.798Z,0.00
2019-05-17T02:23:36.984Z,0.00
2019-05-17T02:24:37.036Z,0.00
2019-05-17T02:25:36.903Z,0.00
2019-05-17T02:26:37.306Z,0.00
2019-05-17T02:27:40.848Z,0.00
2019-05-17T02:28:35.076Z,0.00
2019-05-17T02:29:35.105Z,0.00
2019-05-17T02:30:35.132Z,0.00
2019-05-17T02:31:35.160Z,0.00
2019-05-17T02:32:35.210Z,0.00
2019-05-17T02:34:35.253Z,0.00
2019-05-17T02:35:35.272Z,0.00
2019-05-17T02:36:35.298Z,0.00
2019-05-17T02:37:35.329Z,0.00
2019-05-17T02:38:35.361Z,0.00
2019-05-17T02:39:52.602Z,0.00
2019-05-17T02:40:35.411Z,0.00
2019-05-17T02:41:35.440Z,0.00
2019-05-17T02:42:35.465Z,0.00
2019-05-17T02:43:35.498Z,0.00
2019-05-17T02:44:35.522Z,0.00
2019-05-17T02:45:35.559Z,0.00
2019-05-17T02:46:35.577Z,0.00
2019-05-17T02:47:35.603Z,0.00
2019-05-17T02:48:35.635Z,0.00
2019-05-17T02:49:36.110Z,0.00
2019-05-17T02:50:35.686Z,0.00
2019-05-17T02:51:35.714Z,0.00
2019-05-17T02:52:35.744Z,0.00
2019-05-17T02:53:35.772Z,0.00
2019-05-17T02:54:35.798Z,0.00
2019-05-17T02:55:35.825Z,0.00
2019-05-17T02:56:35.853Z,0.00
2019-05-17T02:57:35.882Z,0.00
2019-05-17T02:58:35.908Z,0.00
2019-05-17T02:59:35.945Z,0.00
2019-05-17T03:00:35.965Z,0.00
2019-05-17T03:01:35.993Z,0.00
2019-05-17T03:02:36.019Z,0.00
2019-05-17T03:03:36.051Z,0.00
2019-05-17T03:04:36.075Z,0.00
2019-05-17T03:05:36.102Z,0.00
2019-05-17T03:06:36.129Z,0.00
2019-05-17T03:07:36.157Z,0.00
2019-05-17T03:08:36.211Z,0.00
2019-05-17T03:09:36.241Z,0.00
2019-05-17T03:10:36.239Z,0.00
2019-05-17T03:11:36.268Z,0.00
2019-05-17T03:12:36.295Z,0.00
2019-05-17T03:13:36.323Z,0.00
2019-05-17T03:14:36.349Z,0.00
2019-05-17T03:15:36.378Z,0.00
2019-05-17T03:16:36.413Z,0.00
2019-05-17T03:17:36.435Z,0.00
2019-05-17T03:18:36.461Z,0.00
2019-05-17T03:19:36.492Z,0.00
2019-05-17T03:20:36.516Z,0.00
2019-05-17T03:21:36.544Z,0.00
2019-05-17T03:22:36.571Z,0.00
2019-05-17T03:23:36.598Z,0.00
2019-05-17T03:24:36.628Z,0.00
2019-05-17T03:25:36.653Z,0.00
2019-05-17T03:26:36.681Z,0.00
2019-05-17T03:27:36.709Z,0.00
2019-05-17T03:28:36.738Z,0.00
2019-05-17T03:29:37.095Z,0.00
2019-05-17T03:30:37.504Z,0.00
2019-05-17T03:31:44.677Z,0.00
2019-05-17T03:32:37.202Z,0.00
2019-05-17T03:33:37.200Z,0.00
2019-05-17T03:35:38.483Z,0.00
2019-05-17T03:36:37.291Z,0.00
2019-05-17T03:37:38.061Z,0.00
2019-05-17T03:38:37.036Z,0.00
2019-05-17T03:41:03.397Z,0.00
2019-05-17T03:41:37.117Z,0.00
2019-05-17T03:42:37.558Z,0.00
2019-05-17T03:43:40.348Z,5.63
2019-05-17T03:44:37.179Z,5.63
2019-05-17T03:45:37.208Z,5.63
2019-05-17T03:46:37.235Z,5.63
2019-05-17T03:47:37.268Z,5.63
2019-05-17T03:49:39.541Z,5.63
2019-05-17T03:50:37.370Z,5.63
2019-05-17T03:51:37.399Z,11.25
2019-05-17T03:52:37.807Z,11.25
2019-05-17T03:53:37.471Z,11.25
2019-05-17T03:54:37.457Z,11.25
2019-05-17T03:55:37.484Z,11.25
2019-05-17T03:56:37.514Z,16.88
2019-05-17T03:57:37.541Z,16.88
2019-05-17T03:58:37.568Z,16.88
2019-05-17T03:59:37.597Z,16.88
2019-05-17T04:00:37.628Z,16.88
2019-05-17T04:01:37.650Z,16.88
2019-05-17T04:02:37.679Z,22.50
2019-05-17T04:03:37.707Z,22.50
2019-05-17T04:04:37.733Z,22.50
2019-05-17T04:05:37.760Z,22.50
2019-05-17T04:06:37.788Z,28.13
2019-05-17T04:07:37.817Z,28.13
2019-05-17T04:08:37.843Z,28.13
2019-05-17T04:09:38.072Z,28.13
2019-05-17T04:10:37.897Z,28.13
2019-05-17T04:11:37.926Z,33.75
2019-05-17T04:12:37.954Z,33.75
2019-05-17T04:13:37.981Z,33.75
2019-05-17T04:14:38.022Z,33.75
2019-05-17T04:15:38.038Z,39.38
2019-05-17T04:16:38.064Z,39.38
2019-05-17T04:17:38.092Z,39.38
2019-05-17T04:18:38.118Z,39.38
2019-05-17T04:19:38.148Z,45.00
2019-05-17T04:20:38.175Z,45.00
2019-05-17T04:21:38.201Z,45.00
2019-05-17T04:22:38.235Z,45.00
2019-05-17T04:23:38.281Z,50.63
2019-05-17T04:24:38.287Z,50.63
2019-05-17T04:25:38.993Z,50.63
2019-05-17T04:26:38.343Z,50.63
2019-05-17T04:27:38.368Z,56.25
2019-05-17T04:28:38.396Z,56.25
2019-05-17T04:30:38.452Z,61.88
2019-05-17T04:31:38.502Z,61.88
2019-05-17T04:32:38.512Z,61.88
2019-05-17T04:33:38.539Z,61.88
2019-05-17T04:34:38.562Z,61.88
2019-05-17T04:35:38.594Z,67.50
2019-05-17T04:36:38.617Z,67.50
2019-05-17T04:37:38.794Z,67.50
2019-05-17T04:38:38.673Z,73.13
2019-05-17T04:39:38.702Z,73.13
2019-05-17T04:40:38.728Z,73.13
2019-05-17T04:41:45.577Z,73.13
2019-05-17T04:42:38.784Z,78.75
2019-05-17T04:43:38.811Z,78.75
2019-05-17T04:44:38.840Z,78.75
2019-05-17T04:45:38.867Z,78.75
2019-05-17T04:46:38.895Z,78.75
2019-05-17T04:47:38.921Z,84.38
2019-05-17T04:48:38.949Z,84.38
2019-05-17T04:49:38.977Z,84.38
2019-05-17T04:50:39.017Z,84.38
2019-05-17T04:51:39.035Z,90.00
2019-05-17T04:52:42.520Z,90.00
2019-05-17T04:53:39.089Z,90.00
2019-05-17T04:54:42.295Z,90.00
2019-05-17T04:55:39.169Z,95.63
2019-05-17T04:56:42.434Z,95.63
2019-05-17T04:57:39.202Z,95.63
2019-05-17T04:58:42.653Z,95.63
2019-05-17T05:02:05.131Z,101.25
2019-05-17T05:03:05.156Z,101.25
2019-05-17T05:04:05.184Z,101.25
2019-05-17T05:05:05.235Z,106.88
2019-05-17T05:06:05.239Z,106.88
2019-05-17T05:07:05.271Z,106.88
2019-05-17T05:08:05.296Z,106.88
2019-05-17T05:09:05.324Z,106.88
2019-05-17T05:10:05.353Z,112.50
2019-05-17T05:11:05.711Z,112.50
2019-05-17T05:12:06.346Z,112.50
2019-05-17T05:13:05.435Z,112.50
2019-05-17T05:14:05.467Z,118.13
2019-05-17T05:15:05.493Z,118.13
2019-05-17T05:16:05.521Z,118.13
2019-05-17T05:17:05.548Z,118.13
2019-05-17T05:18:05.579Z,118.13
2019-05-17T05:19:05.606Z,123.75
2019-05-17T05:20:05.641Z,123.75
2019-05-17T05:21:05.674Z,123.75
2019-05-17T05:22:08.245Z,123.75
2019-05-17T05:23:05.724Z,123.75
2019-05-17T05:24:05.747Z,129.38
2019-05-17T05:25:05.775Z,129.38
2019-05-17T05:26:05.803Z,129.38
2019-05-17T05:27:05.830Z,129.38
2019-05-17T05:28:05.860Z,129.38
2019-05-17T05:29:05.888Z,135.00
2019-05-17T05:30:05.917Z,135.00
2019-05-17T05:31:05.945Z,135.00
2019-05-17T05:32:05.979Z,135.00
2019-05-17T05:33:06.003Z,135.00
2019-05-17T05:34:06.031Z,135.00
2019-05-17T05:35:06.059Z,135.00
2019-05-17T05:36:06.090Z,135.00
2019-05-17T05:37:06.117Z,135.00
2019-05-17T05:38:06.146Z,135.00
2019-05-17T05:39:06.174Z,135.00
2019-05-17T05:40:06.202Z,135.00
2019-05-17T05:41:06.230Z,140.63
2019-05-17T05:42:10.450Z,140.63
2019-05-17T05:43:06.290Z,140.63
2019-05-17T05:44:06.334Z,140.63
2019-05-17T05:45:06.346Z,140.63
2019-05-17T05:46:06.375Z,140.63
2019-05-17T05:47:06.405Z,140.63
2019-05-17T05:48:06.432Z,146.25
2019-05-17T05:49:06.462Z,146.25
2019-05-17T05:50:06.491Z,146.25
2019-05-17T05:51:06.545Z,146.25
2019-05-17T05:52:06.549Z,146.25
2019-05-17T05:53:06.577Z,146.25
2019-05-17T05:54:06.607Z,151.88
2019-05-17T05:55:06.635Z,151.88
2019-05-17T05:56:06.674Z,151.88
2019-05-17T05:57:06.694Z,151.88
2019-05-17T05:58:06.722Z,151.88
2019-05-17T05:59:06.802Z,151.88
2019-05-17T06:00:06.793Z,157.50
2019-05-17T06:01:06.811Z,157.50
2019-05-17T06:02:06.840Z,157.50
2019-05-17T06:03:06.870Z,163.13
2019-05-17T06:04:06.898Z,157.50
2019-05-17T06:05:06.934Z,157.50
2019-05-17T06:06:06.956Z,163.13
2019-05-17T06:07:06.985Z,157.50
2019-05-17T06:08:07.522Z,163.13
2019-05-17T06:09:07.044Z,163.13
2019-05-17T06:10:07.075Z,163.13
2019-05-17T06:11:07.104Z,163.13
2019-05-17T06:12:18.972Z,168.75
2019-05-17T06:13:07.161Z,168.75
2019-05-17T06:14:07.191Z,168.75
2019-05-17T06:15:07.221Z,168.75
2019-05-17T06:16:07.251Z,168.75
2019-05-17T06:17:07.279Z,168.75
2019-05-17T06:18:07.311Z,174.38
2019-05-17T06:19:07.342Z,174.38
2019-05-17T06:20:07.370Z,174.38
2019-05-17T06:21:07.399Z,174.38
2019-05-17T06:22:07.429Z,174.38
2019-05-17T06:23:07.458Z,174.38
2019-05-17T06:24:07.488Z,180.00
2019-05-17T06:25:07.521Z,180.00
2019-05-17T06:26:07.549Z,180.00
2019-05-17T06:27:07.602Z,180.00
2019-05-17T06:28:07.632Z,180.00
2019-05-17T06:29:07.638Z,185.63
2019-05-17T06:30:07.668Z,185.63
2019-05-17T06:31:07.701Z,185.63
2019-05-17T06:32:07.729Z,185.63
2019-05-17T06:33:07.758Z,191.25
2019-05-17T06:34:07.788Z,191.25
2019-05-17T06:35:07.819Z,191.25
2019-05-17T06:36:07.875Z,191.25
2019-05-17T06:37:07.878Z,191.25
2019-05-17T06:38:07.908Z,191.25
2019-05-17T06:39:07.941Z,191.25
2019-05-17T06:40:07.970Z,196.88
2019-05-17T06:41:07.999Z,196.88
2019-05-17T06:42:08.030Z,196.88
2019-05-17T06:43:08.059Z,196.88
2019-05-17T06:44:08.091Z,196.88
2019-05-17T06:45:08.137Z,196.88
2019-05-17T06:46:08.151Z,196.88
2019-05-17T06:47:08.183Z,196.88
2019-05-17T06:48:08.214Z,202.50
2019-05-17T06:49:08.242Z,202.50
2019-05-17T06:50:08.381Z,202.50
2019-05-17T06:51:08.303Z,202.50
2019-05-17T06:52:08.333Z,202.50
2019-05-17T06:53:08.364Z,202.50
2019-05-17T06:54:08.398Z,208.13
2019-05-17T06:55:08.426Z,208.13
2019-05-17T06:56:08.457Z,208.13
2019-05-17T06:57:08.487Z,208.13
2019-05-17T06:58:08.518Z,208.13
2019-05-17T06:59:08.547Z,213.75
2019-05-17T07:00:18.140Z,213.75
2019-05-17T07:01:09.503Z,213.75
2019-05-17T07:02:10.438Z,219.38
2019-05-17T07:03:09.558Z,219.38
2019-05-17T07:04:10.201Z,219.38
2019-05-17T07:05:09.907Z,225.00
2019-05-17T07:06:10.822Z,225.00
2019-05-17T07:07:10.825Z,225.00
2019-05-17T07:08:10.797Z,225.00
2019-05-17T07:09:10.054Z,230.63
2019-05-17T07:10:11.182Z,230.63
2019-05-17T07:11:09.758Z,236.25
2019-05-17T07:12:10.486Z,236.25
2019-05-17T07:13:10.626Z,241.88
2019-05-17T07:14:09.504Z,247.50
2019-05-17T07:15:10.738Z,241.88
2019-05-17T07:16:10.242Z,241.88
2019-05-17T07:17:09.850Z,241.88
2019-05-17T07:18:10.283Z,241.88
2019-05-17T07:19:10.318Z,236.25
2019-05-17T07:20:10.294Z,241.88
2019-05-17T07:21:09.995Z,241.88
2019-05-17T07:22:09.535Z,241.88
2019-05-17T07:23:10.674Z,241.88
2019-05-17T07:24:10.050Z,241.88
2019-05-17T07:25:10.716Z,241.88
2019-05-17T07:26:11.925Z,241.88
2019-05-17T07:27:09.982Z,236.25
2019-05-17T07:28:10.161Z,236.25
2019-05-17T07:29:10.059Z,241.88
2019-05-17T07:30:09.931Z,236.25
2019-05-17T07:32:09.878Z,247.50
2019-05-17T07:33:10.231Z,247.50
2019-05-17T07:34:09.641Z,247.50
2019-05-17T07:35:10.653Z,247.50
2019-05-17T07:36:10.148Z,253.13
2019-05-17T07:37:10.513Z,253.13
2019-05-17T07:38:10.686Z,253.13
2019-05-17T07:39:10.790Z,253.13
2019-05-17T07:40:10.958Z,258.75
2019-05-17T07:41:10.210Z,258.75
2019-05-17T07:42:09.906Z,258.75
2019-05-17T07:43:14.696Z,264.38
2019-05-17T07:44:10.111Z,264.38
2019-05-17T07:45:10.427Z,270.00
2019-05-17T07:46:10.011Z,270.00
2019-05-17T07:47:52.590Z,275.63
2019-05-17T07:48:52.621Z,275.63
2019-05-17T07:49:54.671Z,275.63
2019-05-17T07:50:52.685Z,275.63
2019-05-17T07:51:52.717Z,281.25
2019-05-17T07:52:52.775Z,281.25
2019-05-17T07:53:52.803Z,281.25
2019-05-17T07:54:52.813Z,281.25
2019-05-17T07:55:52.844Z,286.88
2019-05-17T07:56:52.881Z,286.88
2019-05-17T07:57:52.909Z,286.88
2019-05-17T07:58:52.938Z,298.13
2019-05-17T07:59:52.971Z,292.50
2019-05-17T08:00:53.011Z,292.50
2019-05-17T08:01:53.035Z,298.13
2019-05-17T08:02:53.066Z,298.13
2019-05-17T08:03:53.098Z,298.13
2019-05-17T08:04:53.134Z,298.13
2019-05-17T08:05:53.187Z,298.13
2019-05-17T08:06:53.221Z,298.13
2019-05-17T08:07:53.449Z,303.75
2019-05-17T08:09:53.292Z,303.75
2019-05-17T08:10:53.346Z,309.38
2019-05-17T08:11:53.355Z,303.75
2019-05-17T08:12:53.412Z,303.75
2019-05-17T08:14:53.475Z,309.38
2019-05-17T08:15:53.485Z,309.38
2019-05-17T08:16:53.520Z,315.00
2019-05-17T08:17:53.977Z,315.00
2019-05-17T08:18:53.581Z,320.63
2019-05-17T08:19:53.615Z,320.63
2019-05-17T08:20:53.649Z,320.63
2019-05-17T08:21:53.682Z,320.63
2019-05-17T08:22:53.713Z,320.63
2019-05-17T08:23:53.753Z,320.63
2019-05-17T08:24:53.779Z,326.25
2019-05-17T08:25:56.317Z,326.25
2019-05-17T08:26:53.844Z,337.50
2019-05-17T08:27:54.079Z,331.88
2019-05-17T08:28:53.909Z,337.50
2019-05-17T08:29:53.944Z,337.50
2019-05-17T08:30:53.987Z,343.13
2019-05-17T08:31:54.009Z,343.13
2019-05-17T08:32:54.049Z,343.13
2019-05-17T08:33:54.076Z,343.13
2019-05-17T08:34:54.110Z,343.13
2019-05-17T08:35:54.142Z,343.13
2019-05-17T08:36:54.176Z,348.75
2019-05-17T08:37:54.210Z,348.75
2019-05-17T08:38:54.242Z,348.75
2019-05-17T08:39:54.277Z,354.38
2019-05-17T08:40:54.308Z,360.00
2019-05-17T08:41:54.342Z,360.00
2019-05-17T08:42:54.375Z,360.00
2019-05-17T08:43:54.410Z,360.00
2019-05-17T08:44:54.445Z,365.63
2019-05-17T08:45:54.476Z,365.63
2019-05-17T08:46:54.510Z,371.25
2019-05-17T08:47:54.545Z,371.25
2019-05-17T08:48:54.577Z,371.25
2019-05-17T08:49:54.611Z,376.88
2019-05-17T08:50:54.646Z,376.88
2019-05-17T08:51:54.679Z,388.13
2019-05-17T08:52:54.711Z,388.13
2019-05-17T08:53:54.747Z,388.13
2019-05-17T08:54:54.780Z,399.38
2019-05-17T08:55:54.815Z,393.75
2019-05-17T08:56:54.850Z,405.00
2019-05-17T08:57:54.886Z,410.63
2019-05-17T08:58:54.917Z,416.25
2019-05-17T08:59:54.951Z,421.88
2019-05-17T09:00:54.987Z,421.88
2019-05-17T09:01:55.021Z,433.13
2019-05-17T09:02:55.056Z,444.38
2019-05-17T09:03:55.089Z,455.63
2019-05-17T09:04:55.130Z,466.88
2019-05-17T09:05:55.161Z,472.50
2019-05-17T09:06:55.193Z,483.75
2019-05-17T09:07:55.229Z,495.00
2019-05-17T09:08:55.264Z,511.88
2019-05-17T09:09:55.303Z,523.13
2019-05-17T09:10:55.335Z,534.38
2019-05-17T09:11:55.369Z,540.00
2019-05-17T09:12:55.406Z,551.25
2019-05-17T09:13:58.493Z,556.88
2019-05-17T09:14:55.476Z,562.50
2019-05-17T09:15:55.511Z,585.00
2019-05-17T09:16:55.549Z,596.25
2019-05-17T09:17:55.582Z,596.25
2019-05-17T09:18:55.842Z,607.50
2019-05-17T09:19:55.682Z,585.00
2019-05-17T09:21:55.731Z,540.00
2019-05-17T09:22:55.760Z,579.38
2019-05-17T09:23:55.797Z,562.50
2019-05-17T09:24:55.834Z,568.13
2019-05-17T09:25:55.870Z,534.38
2019-05-17T09:26:55.907Z,540.00
2019-05-17T09:27:55.941Z,551.25
2019-05-17T09:28:56.029Z,568.13
2019-05-17T09:29:56.015Z,568.13
2019-05-17T09:30:56.057Z,573.75
2019-05-17T09:31:56.416Z,585.00
2019-05-17T09:32:56.125Z,579.38
2019-05-17T09:33:56.185Z,523.13
2019-05-17T09:34:56.421Z,523.13
2019-05-17T09:35:56.235Z,523.13
2019-05-17T09:36:56.298Z,528.75
2019-05-17T09:37:56.308Z,528.75
2019-05-17T09:38:56.349Z,534.38
2019-05-17T09:39:56.386Z,573.75
2019-05-17T09:40:56.418Z,579.38
2019-05-17T09:41:56.454Z,630.00
2019-05-17T09:42:56.490Z,658.13
2019-05-17T09:44:12.165Z,680.63
2019-05-17T09:44:56.565Z,680.63
2019-05-17T09:45:56.605Z,652.50
2019-05-17T09:46:56.638Z,607.50
2019-05-17T09:47:56.675Z,573.75
2019-05-17T09:48:56.712Z,630.00
2019-05-17T09:49:56.751Z,652.50
2019-05-17T09:50:56.786Z,663.75
2019-05-17T09:51:56.827Z,680.63
2019-05-17T09:52:56.861Z,669.38
2019-05-17T09:53:56.900Z,652.50
2019-05-17T09:54:56.935Z,630.00
2019-05-17T09:55:56.973Z,618.75
2019-05-17T09:56:57.013Z,630.00
2019-05-17T09:57:57.048Z,646.88
2019-05-17T09:58:57.085Z,691.88
2019-05-17T09:59:57.125Z,697.50
2019-05-17T10:00:57.161Z,697.50
2019-05-17T10:01:57.198Z,686.25
2019-05-17T10:02:57.235Z,680.63
2019-05-17T10:03:59.712Z,691.88
2019-05-17T10:04:59.654Z,663.75
2019-05-17T10:05:59.853Z,607.50
2019-05-17T10:06:59.386Z,691.88
2019-05-17T10:07:59.872Z,720.00
2019-05-17T10:08:57.462Z,714.38
2019-05-17T10:09:59.806Z,720.00
2019-05-17T10:11:06.026Z,691.88
2019-05-17T10:11:59.881Z,720.00
2019-05-17T10:13:00.095Z,736.88
2019-05-17T10:13:59.019Z,742.50
2019-05-17T10:14:57.692Z,787.50
2019-05-17T10:15:57.732Z,849.38
2019-05-17T10:17:00.176Z,1333.13
2019-05-17T10:18:00.413Z,2025.00
2019-05-17T10:18:59.968Z,2199.38
2019-05-17T10:19:59.940Z,2671.88
2019-05-17T10:20:59.892Z,2216.25
2019-05-17T10:21:59.726Z,1614.38
2019-05-17T10:22:59.570Z,1828.13
2019-05-17T10:24:00.140Z,1726.88
2019-05-17T10:25:00.184Z,2407.50
2019-05-17T10:25:59.585Z,1524.38
2019-05-17T10:26:59.508Z,1614.38
2019-05-17T10:28:00.393Z,1462.50
2019-05-17T10:28:59.367Z,1698.75
2019-05-17T10:29:59.517Z,1946.25
2019-05-17T10:31:02.063Z,1670.63
2019-05-17T10:31:59.868Z,1513.13
2019-05-17T10:32:59.973Z,1867.50
2019-05-17T10:34:00.910Z,1811.25
2019-05-17T10:35:00.333Z,1383.75
2019-05-17T10:36:00.458Z,1749.38
2019-05-17T10:36:58.597Z,1783.13
2019-05-17T10:37:59.562Z,1693.13
2019-05-17T10:38:59.286Z,1569.38
2019-05-17T10:39:58.723Z,1558.13
2019-05-17T10:40:58.789Z,1473.75
2019-05-17T10:41:58.809Z,1108.13
2019-05-17T10:43:00.727Z,1130.63
2019-05-17T10:43:58.897Z,1164.38
2019-05-17T10:44:59.960Z,1603.13
2019-05-17T10:45:59.812Z,1867.50
2019-05-17T10:48:00.777Z,1018.13
2019-05-17T10:48:59.134Z,1276.88
2019-05-17T10:49:59.179Z,1355.63
2019-05-17T10:51:00.355Z,2205.00
2019-05-17T10:51:59.974Z,2520.00
2019-05-17T10:53:00.497Z,1496.25
2019-05-17T10:53:59.978Z,1715.63
2019-05-17T10:54:59.804Z,2013.75
2019-05-17T10:56:00.615Z,1642.50
2019-05-17T10:56:59.788Z,1513.13
2019-05-17T10:58:00.479Z,1051.88
2019-05-17T10:59:00.188Z,1158.75
2019-05-17T11:00:00.220Z,1136.25
2019-05-17T11:01:00.846Z,1035.00
2019-05-17T11:03:00.656Z,1265.63
2019-05-17T11:03:59.793Z,1198.13
2019-05-17T11:05:00.899Z,1181.25
2019-05-17T11:06:00.020Z,1001.25
2019-05-17T11:06:59.897Z,1012.50
2019-05-17T11:08:00.054Z,866.25
2019-05-17T11:08:59.983Z,905.63
2019-05-17T11:10:00.609Z,1653.75
2019-05-17T11:11:00.075Z,1130.63
2019-05-17T11:12:00.112Z,1434.38
2019-05-17T11:13:00.156Z,1996.88
2019-05-17T11:14:00.199Z,2306.25
2019-05-17T11:15:09.679Z,2396.25
2019-05-17T11:16:00.307Z,2525.63
2019-05-17T11:17:02.963Z,2818.13
2019-05-17T11:19:00.946Z,2891.25
2019-05-17T11:20:00.461Z,2345.63
2019-05-17T11:21:00.506Z,1687.50
2019-05-17T11:22:00.552Z,1755.00
2019-05-17T11:23:00.596Z,1749.38
2019-05-17T11:24:00.639Z,1591.88
2019-05-17T11:25:00.684Z,1040.63
2019-05-17T11:26:00.731Z,950.63
2019-05-17T11:27:00.774Z,883.13
2019-05-17T11:28:00.819Z,1023.75
2019-05-17T11:29:00.865Z,855.00
2019-05-17T11:30:00.913Z,753.75
2019-05-17T11:31:00.951Z,720.00
2019-05-17T11:32:00.997Z,742.50
2019-05-17T11:33:01.040Z,742.50
2019-05-17T11:34:01.084Z,680.63
2019-05-17T11:35:01.141Z,708.75
2019-05-17T11:36:01.199Z,866.25
2019-05-17T11:38:01.282Z,945.00
2019-05-17T11:39:01.299Z,928.13
2019-05-17T11:40:01.341Z,810.00
2019-05-17T11:41:18.401Z,939.38
2019-05-17T11:42:01.426Z,849.38
2019-05-17T11:43:01.479Z,815.63
2019-05-17T11:44:01.515Z,781.88
2019-05-17T11:45:01.568Z,787.50
2019-05-17T11:46:01.620Z,787.50
2019-05-17T11:47:01.640Z,793.13
2019-05-17T11:48:01.678Z,849.38
2019-05-17T11:49:01.721Z,815.63
2019-05-17T11:50:01.777Z,922.50
2019-05-17T11:51:01.801Z,995.63
2019-05-17T11:52:01.842Z,1170.00
2019-05-17T11:53:01.885Z,1063.13
2019-05-17T11:54:01.929Z,1051.88
2019-05-17T11:55:01.977Z,1153.13
2019-05-17T11:56:02.010Z,1175.63
2019-05-17T11:57:02.050Z,2868.75
2019-05-17T11:58:02.107Z,1845.00
2019-05-17T11:59:02.133Z,2548.13
2019-05-17T12:00:05.810Z,2711.25
2019-05-17T12:01:02.218Z,2643.75
2019-05-17T12:02:02.272Z,2874.38
2019-05-17T12:03:02.302Z,2559.38
2019-05-17T12:04:02.347Z,2767.50
2019-05-17T12:05:02.390Z,2041.88
2019-05-17T12:06:02.436Z,2829.38
2019-05-17T12:07:02.478Z,1665.00
2019-05-17T12:08:02.525Z,995.63
2019-05-17T12:09:02.567Z,956.25
2019-05-17T12:10:02.613Z,973.13
2019-05-17T12:11:02.787Z,1018.13
2019-05-17T12:12:02.706Z,995.63
2019-05-17T12:13:02.747Z,939.38
2019-05-17T12:14:02.796Z,871.88
2019-05-17T12:15:02.848Z,877.50
2019-05-17T12:16:02.914Z,933.75
2019-05-17T12:17:02.928Z,961.88
2019-05-17T12:18:02.980Z,1271.25
2019-05-17T12:19:03.014Z,916.88
2019-05-17T12:20:03.085Z,838.13
2019-05-17T12:21:03.108Z,798.75
2019-05-17T12:22:03.151Z,793.13
2019-05-17T12:23:03.190Z,815.63
2019-05-17T12:24:03.235Z,787.50
2019-05-17T12:25:03.276Z,759.38
2019-05-17T12:26:03.320Z,742.50
2019-05-17T12:27:03.363Z,765.00
2019-05-17T12:28:03.419Z,793.13
2019-05-17T12:29:03.493Z,798.75
2019-05-17T12:30:03.737Z,810.00
2019-05-17T12:32:03.594Z,832.50
2019-05-17T12:33:03.762Z,860.63
2019-05-17T12:34:03.674Z,849.38
2019-05-17T12:35:03.787Z,894.38
2019-05-17T12:36:03.749Z,1029.38
2019-05-17T12:37:03.788Z,888.75
2019-05-17T12:38:03.828Z,888.75
2019-05-17T12:39:03.868Z,1389.38
2019-05-17T12:40:03.913Z,1091.25
2019-05-17T12:41:03.953Z,1186.88
2019-05-17T12:42:04.103Z,793.13
2019-05-17T12:43:04.039Z,759.38
2019-05-17T12:44:04.079Z,810.00
2019-05-17T12:45:04.119Z,2165.63
2019-05-17T12:46:04.160Z,849.38
2019-05-17T12:47:04.201Z,686.25
2019-05-17T12:48:04.245Z,658.13
2019-05-17T12:49:04.285Z,568.13
2019-05-17T12:50:04.388Z,495.00
2019-05-17T12:51:04.368Z,455.63
2019-05-17T12:52:04.410Z,433.13
2019-05-17T12:53:04.455Z,421.88
2019-05-17T12:54:04.503Z,427.50
2019-05-17T12:55:04.531Z,427.50
2019-05-17T12:56:04.576Z,433.13
2019-05-17T12:57:05.023Z,450.00
2019-05-17T12:58:04.743Z,489.38
2019-05-17T12:59:04.698Z,540.00
2019-05-17T13:00:04.734Z,601.88
2019-05-17T13:01:04.776Z,658.13
2019-05-17T13:02:04.816Z,697.50
2019-05-17T13:03:04.860Z,742.50
2019-05-17T13:04:04.899Z,1085.63
2019-05-17T13:05:04.939Z,1406.25
2019-05-17T13:06:04.986Z,900.00
2019-05-17T13:07:05.019Z,781.88